Patuxent River Naval Air Sta, Maryland
Current Conditions -  °F | °C
As of 3:52 AM on Sunday 23 Nov 2014 (Local Time) from KNHK Reporting Station
Clear Clear  
Wind Chill: 38°   Ceiling: Unl
Heat Index: 42°   Visibility: 10mi
Dew Point: 16°   Wind: 6mph
Humidity: 35%   Direction: 190°S
Pressure: 30.25"   Gusts: NA
Location:  38.2812°N, 76.4205°W
Report Text: KNHK 230852Z AUTO 19005KT 10SM CLR 06/M09 A3025 RMK AO2 SLP242 T00561089 58011
Loading
Personal Weather Stations






























Interactive Weather Map New forecast layout! Learn more

10-Day Weather Forecast

Advertisements
Track Severe Weather on mobile